createdAt,value
2018-03-06T00:01:44.126Z,71.10
2018-03-06T00:04:11.005Z,71.20
2018-03-06T00:06:38.492Z,70.60
2018-03-06T00:09:06.136Z,71.20
2018-03-06T00:11:32.944Z,71.00
2018-03-06T00:13:59.814Z,70.80
2018-03-06T00:16:26.771Z,71.00
2018-03-06T00:18:55.126Z,71.60
2018-03-06T00:21:21.882Z,71.50
2018-03-06T00:23:50.275Z,71.90
2018-03-06T00:26:18.041Z,72.20
2018-03-06T00:28:45.812Z,72.20
2018-03-06T00:31:13.574Z,72.70
2018-03-06T00:33:41.127Z,73.30
2018-03-06T00:36:08.081Z,72.60
2018-03-06T00:38:35.849Z,72.70
2018-03-06T00:41:03.332Z,72.70
2018-03-06T00:43:30.120Z,72.70
2018-03-06T00:45:56.988Z,72.70
2018-03-06T00:48:23.692Z,72.70
2018-03-06T00:50:50.590Z,72.60
2018-03-06T00:53:18.239Z,72.60
2018-03-06T00:55:44.964Z,72.60
2018-03-06T00:58:11.700Z,72.70
2018-03-06T01:00:38.567Z,73.10
2018-03-06T01:03:05.399Z,73.40
2018-03-06T01:05:32.254Z,73.30
2018-03-06T01:08:00.533Z,73.10
2018-03-06T01:10:28.020Z,73.40
2018-03-06T01:12:55.496Z,73.60
2018-03-06T01:15:22.225Z,73.40
2018-03-06T01:17:50.074Z,74.10
2018-03-06T01:20:17.836Z,74.30
2018-03-06T01:22:44.783Z,74.30
2018-03-06T01:25:11.618Z,74.50
2018-03-06T01:27:39.124Z,74.50
2018-03-06T01:30:05.872Z,74.50
2018-03-06T01:32:32.878Z,74.50
2018-03-06T01:35:00.391Z,74.60
2018-03-06T01:37:27.285Z,74.60
2018-03-06T01:39:54.811Z,74.90
2018-03-06T01:42:21.657Z,74.90
2018-03-06T01:44:48.407Z,74.90
2018-03-06T01:47:15.381Z,74.90
2018-03-06T01:49:43.044Z,75.00
2018-03-06T01:52:10.596Z,75.00
2018-03-06T01:54:37.550Z,74.90
2018-03-06T01:57:04.388Z,75.10
2018-03-06T01:59:31.080Z,75.20
2018-03-06T02:01:57.869Z,75.40
2018-03-06T02:04:24.820Z,75.50
2018-03-06T02:06:51.671Z,75.50
2018-03-06T02:09:19.226Z,75.50
2018-03-06T02:11:46.173Z,75.50
2018-03-06T02:14:13.729Z,76.30
2018-03-06T02:16:40.585Z,75.50
2018-03-06T02:19:08.130Z,75.80
2018-03-06T02:21:34.987Z,76.30
2018-03-06T02:24:01.726Z,75.50
2018-03-06T02:26:28.679Z,75.60
2018-03-06T02:28:56.651Z,75.20
2018-03-06T02:31:24.202Z,75.50
2018-03-06T02:33:51.876Z,75.60
2018-03-06T02:36:18.713Z,75.50
2018-03-06T02:38:46.486Z,75.40
2018-03-06T02:41:14.041Z,75.30
2018-03-06T02:43:41.520Z,75.40
2018-03-06T02:46:12.040Z,75.40
2018-03-06T02:48:39.563Z,75.50
2018-03-06T02:51:06.310Z,75.40
2018-03-06T02:53:33.181Z,75.40
2018-03-06T02:56:00.747Z,75.50
2018-03-06T02:58:27.479Z,75.40
2018-03-06T03:00:54.244Z,75.00
2018-03-06T03:03:21.895Z,75.80
2018-03-06T03:05:49.660Z,75.80
2018-03-06T03:08:16.607Z,75.60
2018-03-06T03:10:44.087Z,75.80
2018-03-06T03:13:10.909Z,75.70
2018-03-06T03:15:37.654Z,75.90
2018-03-06T03:18:04.490Z,75.90
2018-03-06T03:20:31.179Z,76.00
2018-03-06T03:22:59.545Z,76.00
2018-03-06T03:25:27.285Z,76.00
2018-03-06T03:27:54.014Z,75.90
2018-03-06T03:30:21.285Z,76.00
2018-03-06T03:32:48.936Z,76.10
2018-03-06T03:35:16.816Z,76.10
2018-03-06T03:37:44.475Z,77.10
2018-03-06T03:40:12.030Z,76.00
2018-03-06T03:42:38.978Z,76.00
2018-03-06T03:45:06.457Z,76.00
2018-03-06T03:47:34.100Z,76.00
2018-03-06T03:50:00.923Z,75.80
2018-03-06T03:52:27.912Z,75.90
2018-03-06T03:54:55.452Z,75.80
2018-03-06T03:57:22.218Z,75.80
2018-03-06T03:59:49.867Z,75.80
2018-03-06T04:02:17.417Z,75.70
2018-03-06T04:04:44.945Z,75.80
2018-03-06T04:07:11.722Z,75.70
2018-03-06T04:09:38.464Z,75.70
2018-03-06T04:12:05.319Z,75.80
2018-03-06T04:14:32.867Z,75.90
2018-03-06T04:17:01.259Z,75.80
2018-03-06T04:19:28.763Z,75.70
2018-03-06T04:21:55.536Z,75.70
2018-03-06T04:24:22.509Z,75.60
2018-03-06T04:26:50.062Z,75.60
2018-03-06T04:29:17.525Z,75.60
2018-03-06T04:31:44.366Z,75.60
2018-03-06T04:34:11.320Z,75.60
2018-03-06T04:36:38.820Z,75.80
2018-03-06T04:39:05.932Z,75.80
2018-03-06T04:41:33.598Z,75.90
2018-03-06T04:44:00.432Z,75.90
2018-03-06T04:46:28.207Z,75.90
2018-03-06T04:48:55.142Z,75.80
2018-03-06T04:51:21.886Z,75.80
2018-03-06T04:53:48.711Z,75.80
2018-03-06T04:56:15.685Z,76.00
2018-03-06T04:58:42.634Z,76.00
2018-03-06T05:01:10.399Z,76.10
2018-03-06T05:03:37.940Z,76.20
2018-03-06T05:06:04.798Z,76.20
2018-03-06T05:08:32.315Z,76.20
2018-03-06T05:10:59.315Z,76.20
2018-03-06T05:13:27.007Z,76.20
2018-03-06T05:15:53.924Z,76.20
2018-03-06T05:18:20.739Z,76.20
2018-03-06T05:20:47.605Z,76.10
2018-03-06T05:23:14.450Z,76.20
2018-03-06T05:25:42.121Z,76.40
2018-03-06T05:28:09.750Z,76.60
2018-03-06T05:30:37.442Z,76.70
2018-03-06T05:33:04.286Z,76.70
2018-03-06T05:35:31.130Z,76.70
2018-03-06T05:37:57.870Z,76.70
2018-03-06T05:40:25.431Z,76.70
2018-03-06T05:42:52.168Z,76.70
2018-03-06T05:45:19.122Z,76.70
2018-03-06T05:47:46.079Z,76.80
2018-03-06T05:50:13.555Z,77.00
2018-03-06T05:52:40.584Z,77.00
2018-03-06T05:55:07.423Z,77.60
2018-03-06T05:57:34.479Z,77.20
2018-03-06T06:00:01.279Z,77.20
2018-03-06T06:02:28.271Z,77.30
2018-03-06T06:04:55.928Z,77.50
2018-03-06T06:07:24.135Z,77.60
2018-03-06T06:09:51.591Z,77.60
2018-03-06T06:12:18.360Z,77.60
2018-03-06T06:14:45.119Z,77.70
2018-03-06T06:17:12.000Z,77.50
2018-03-06T06:19:44.981Z,77.40
2018-03-06T06:22:11.795Z,77.50
2018-03-06T06:24:38.604Z,77.60
2018-03-06T06:27:06.341Z,78.20
2018-03-06T06:29:33.290Z,77.80
2018-03-06T06:32:00.123Z,78.00
2018-03-06T06:34:26.820Z,78.10
2018-03-06T06:36:54.428Z,77.80
2018-03-06T06:39:21.273Z,77.80
2018-03-06T06:41:48.118Z,77.70
2018-03-06T06:44:14.848Z,77.80
2018-03-06T06:46:41.817Z,78.10
2018-03-06T06:49:08.533Z,78.30
2018-03-06T06:51:35.251Z,78.50
2018-03-06T06:54:02.648Z,78.60
2018-03-06T06:56:29.391Z,79.50
2018-03-06T06:58:56.345Z,78.60
2018-03-06T07:01:23.161Z,78.60
2018-03-06T07:03:49.895Z,78.60
2018-03-06T07:06:16.898Z,78.30
2018-03-06T07:08:43.716Z,78.30
2018-03-06T07:11:17.416Z,78.20
2018-03-06T07:13:44.377Z,78.10
2018-03-06T07:16:11.210Z,77.90
2018-03-06T07:18:38.056Z,78.10
2018-03-06T07:21:04.913Z,78.10
2018-03-06T07:23:31.757Z,78.10
2018-03-06T07:25:58.518Z,78.10
2018-03-06T07:28:26.189Z,77.70
2018-03-06T07:30:53.924Z,77.50
2018-03-06T07:33:20.872Z,77.50
2018-03-06T07:35:47.709Z,77.50
2018-03-06T07:38:14.401Z,77.70
2018-03-06T07:40:41.887Z,78.40
2018-03-06T07:43:08.609Z,78.40
2018-03-06T07:45:36.322Z,79.10
2018-03-06T07:48:03.083Z,79.10
2018-03-06T07:50:30.115Z,79.40
2018-03-06T07:52:56.836Z,79.10
2018-03-06T07:55:23.593Z,79.10
2018-03-06T07:57:50.333Z,79.00
2018-03-06T08:00:17.323Z,79.00
2018-03-06T08:02:44.952Z,78.70
2018-03-06T08:05:11.660Z,78.70
2018-03-06T08:07:38.356Z,78.80
2018-03-06T08:10:05.380Z,79.60
2018-03-06T08:12:32.333Z,78.70
2018-03-06T08:15:01.813Z,78.50
2018-03-06T08:17:29.606Z,78.60
2018-03-06T08:19:56.542Z,78.60
2018-03-06T08:22:23.488Z,78.60
2018-03-06T08:24:50.307Z,78.60
2018-03-06T08:27:17.176Z,78.20
2018-03-06T08:29:43.875Z,77.50
2018-03-06T08:32:11.590Z,77.50
2018-03-06T08:34:38.539Z,77.50
2018-03-06T08:37:05.237Z,77.10
2018-03-06T08:39:32.127Z,76.20
2018-03-06T08:41:59.074Z,75.60
2018-03-06T08:44:26.019Z,76.00
2018-03-06T08:46:52.839Z,76.40
2018-03-06T08:49:19.816Z,76.60
2018-03-06T08:51:46.650Z,76.10
2018-03-06T08:54:13.498Z,75.50
2018-03-06T08:56:40.481Z,75.40
2018-03-06T08:59:08.212Z,75.00
2018-03-06T09:01:35.883Z,75.00
2018-03-06T09:04:02.610Z,74.90
2018-03-06T09:06:29.431Z,75.30
2018-03-06T09:08:56.195Z,75.30
2018-03-06T09:11:23.723Z,75.40
2018-03-06T09:13:50.440Z,75.40
2018-03-06T09:16:18.075Z,75.00
2018-03-06T09:18:44.818Z,74.20
2018-03-06T09:21:11.574Z,73.80
2018-03-06T09:23:38.418Z,73.30
2018-03-06T09:26:06.062Z,72.80
2018-03-06T09:28:32.913Z,72.80
2018-03-06T09:30:59.728Z,72.70
2018-03-06T09:33:26.700Z,72.30
2018-03-06T09:35:53.646Z,71.90
2018-03-06T09:38:20.345Z,71.00
2018-03-06T09:40:47.065Z,71.10
2018-03-06T09:43:14.587Z,71.60
2018-03-06T09:45:41.425Z,71.60
2018-03-06T09:48:08.379Z,71.90
2018-03-06T09:50:35.228Z,72.30
2018-03-06T09:53:02.574Z,72.10
2018-03-06T09:55:29.440Z,72.10
2018-03-06T09:57:57.096Z,71.90
2018-03-06T10:00:24.131Z,71.80
2018-03-06T10:02:50.823Z,71.80
2018-03-06T10:05:18.434Z,72.40
2018-03-06T10:07:45.258Z,72.40
2018-03-06T10:10:12.232Z,72.80
2018-03-06T10:12:39.078Z,72.80
2018-03-06T10:15:22.439Z,72.90
2018-03-06T10:17:49.973Z,72.90
2018-03-06T10:20:16.925Z,73.00
2018-03-06T10:22:43.651Z,72.80
2018-03-06T10:25:10.367Z,73.50
2018-03-06T10:27:37.040Z,74.10
2018-03-06T10:30:03.988Z,75.70
2018-03-06T10:32:30.822Z,75.80
2018-03-06T10:34:57.672Z,75.60
2018-03-06T10:37:24.516Z,75.60
2018-03-06T10:39:51.221Z,76.00
2018-03-06T10:42:18.824Z,76.20
2018-03-06T10:44:45.537Z,76.20
2018-03-06T10:47:12.234Z,76.50
2018-03-06T10:49:39.996Z,77.40
2018-03-06T10:52:07.441Z,76.60
2018-03-06T11:14:44.481Z,75.40
2018-03-06T11:17:11.614Z,75.90
2018-03-06T11:19:38.492Z,76.20
2018-03-06T11:22:06.225Z,76.60
2018-03-06T11:24:33.085Z,76.60
2018-03-06T11:26:59.998Z,76.60
2018-03-06T11:29:26.954Z,76.50
2018-03-06T11:31:53.910Z,76.40
2018-03-06T11:34:35.697Z,76.50
2018-03-06T11:37:02.757Z,76.80
2018-03-06T11:39:29.695Z,76.60
2018-03-06T11:41:56.520Z,76.70
2018-03-06T11:44:23.367Z,76.90
2018-03-06T11:46:50.316Z,77.70
2018-03-06T11:49:17.387Z,76.80
2018-03-06T11:51:44.313Z,77.10
2018-03-06T11:54:11.376Z,77.60
2018-03-06T11:56:38.224Z,78.00
2018-03-06T11:59:05.063Z,78.20
2018-03-06T12:01:32.009Z,78.50
2018-03-06T12:03:59.090Z,78.60
2018-03-06T12:06:26.938Z,78.90
2018-03-06T12:08:53.987Z,78.80
2018-03-06T12:11:22.851Z,78.90
2018-03-06T12:13:49.676Z,78.00
2018-03-06T12:16:16.516Z,78.00
2018-03-06T12:18:43.639Z,77.60
2018-03-06T12:21:11.274Z,77.60
2018-03-06T12:23:38.221Z,77.70
2018-03-06T12:26:05.381Z,77.30
2018-03-06T12:28:32.419Z,77.20
2018-03-06T12:30:59.291Z,77.70
2018-03-06T12:33:27.859Z,76.40
2018-03-06T12:35:54.702Z,76.40
2018-03-06T12:38:21.539Z,75.50
2018-03-06T12:40:49.162Z,74.10
2018-03-06T12:43:15.974Z,74.10
2018-03-06T12:45:42.817Z,74.50
2018-03-06T12:48:09.772Z,74.30
2018-03-06T12:50:37.431Z,70.70
2018-03-06T12:53:04.364Z,70.80
2018-03-06T12:55:31.214Z,69.40
2018-03-06T12:57:58.101Z,66.80
2018-03-06T13:00:25.057Z,65.80
2018-03-06T13:02:51.927Z,65.10
2018-03-06T13:05:18.887Z,65.20
2018-03-06T13:07:45.707Z,64.20
2018-03-06T13:10:12.573Z,63.90
2018-03-06T13:12:39.390Z,63.90
2018-03-06T13:15:36.173Z,63.00
2018-03-06T13:18:03.845Z,61.20
2018-03-06T13:20:30.660Z,60.80
2018-03-06T13:22:57.479Z,60.60
2018-03-06T13:25:24.276Z,60.40
2018-03-06T13:27:51.142Z,60.40
2018-03-06T13:30:18.819Z,60.80
2018-03-06T13:32:45.648Z,60.70
2018-03-06T13:35:13.282Z,61.30
2018-03-06T13:37:40.143Z,61.20
2018-03-06T13:40:06.979Z,61.40
2018-03-06T13:42:33.814Z,61.70
2018-03-06T13:45:00.714Z,62.20
2018-03-06T13:47:30.433Z,62.40
2018-03-06T13:49:57.268Z,63.20
2018-03-06T13:52:24.080Z,64.20
2018-03-06T13:54:51.054Z,64.30
2018-03-06T13:57:18.930Z,64.10
2018-03-06T13:59:45.859Z,64.10
2018-03-06T14:02:13.403Z,64.60
2018-03-06T14:04:40.225Z,64.60
2018-03-06T14:07:07.066Z,64.50
2018-03-06T14:09:33.942Z,64.70
2018-03-06T14:12:01.501Z,65.20
2018-03-06T14:14:44.608Z,65.20
2018-03-06T14:17:11.578Z,65.30
2018-03-06T14:19:39.170Z,65.30
2018-03-06T14:22:05.992Z,65.30
2018-03-06T14:24:33.691Z,64.60
2018-03-06T14:27:00.562Z,64.50
2018-03-06T14:29:27.432Z,63.90
2018-03-06T14:31:54.354Z,62.80
2018-03-06T14:34:21.168Z,62.20
2018-03-06T14:36:48.073Z,61.60
2018-03-06T14:39:15.628Z,60.50
2018-03-06T14:41:42.458Z,60.40
2018-03-06T14:44:09.293Z,59.20
2018-03-06T14:46:36.141Z,59.60
2018-03-06T14:49:02.986Z,59.30
2018-03-06T14:51:29.874Z,59.10
2018-03-06T14:53:57.498Z,56.70
2018-03-06T14:56:24.386Z,56.70
2018-03-06T14:58:52.014Z,57.30
2018-03-06T15:01:18.895Z,57.30
2018-03-06T15:03:46.449Z,58.70
2018-03-06T15:06:14.019Z,58.90
2018-03-06T15:08:41.601Z,59.00
2018-03-06T15:11:09.944Z,58.90
2018-03-06T15:13:37.588Z,59.50
2018-03-06T15:16:24.186Z,59.40
2018-03-06T15:18:51.035Z,60.40
2018-03-06T15:21:17.975Z,60.50
2018-03-06T15:23:44.775Z,60.20
2018-03-06T15:26:11.644Z,60.40
2018-03-06T15:28:39.278Z,60.50
2018-03-06T15:31:06.120Z,60.40
2018-03-06T15:33:33.712Z,60.40
2018-03-06T15:36:00.546Z,60.40
2018-03-06T15:38:27.527Z,60.30
2018-03-06T15:40:54.461Z,60.30
2018-03-06T15:43:21.405Z,60.30
2018-03-06T15:45:48.567Z,60.30
2018-03-06T15:48:15.401Z,59.90
2018-03-06T15:50:42.247Z,59.90
2018-03-06T15:53:09.305Z,59.80
2018-03-06T15:55:36.448Z,59.50
2018-03-06T15:58:03.712Z,59.30
2018-03-06T16:00:31.570Z,59.40
2018-03-06T16:02:58.825Z,58.90
2018-03-06T16:05:27.207Z,59.00
2018-03-06T16:07:56.548Z,59.00
2018-03-06T16:10:26.830Z,59.10
2018-03-06T16:12:56.605Z,59.30
2018-03-06T16:15:56.637Z,59.50
2018-03-06T16:18:24.344Z,59.90
2018-03-06T16:20:52.930Z,57.30
2018-03-06T16:23:21.226Z,55.80
2018-03-06T16:25:48.481Z,55.80
2018-03-06T16:28:16.628Z,56.10
2018-03-06T16:30:45.110Z,56.50
2018-03-06T16:33:13.603Z,56.50
2018-03-06T16:35:42.086Z,56.60
2018-03-06T16:38:10.391Z,56.80
2018-03-06T16:40:37.714Z,56.70
2018-03-06T16:43:05.824Z,57.30
2018-03-06T16:45:34.063Z,57.30
2018-03-06T16:48:03.740Z,57.50
2018-03-06T16:50:31.133Z,57.50
2018-03-06T16:52:59.058Z,58.40
2018-03-06T16:55:26.206Z,58.20
2018-03-06T16:57:53.421Z,58.70
2018-03-06T17:00:28.305Z,59.50
2018-03-06T17:02:55.428Z,59.50
2018-03-06T17:05:22.897Z,59.50
2018-03-06T17:07:50.063Z,59.90
2018-03-06T17:10:17.333Z,60.00
2018-03-06T17:12:44.498Z,60.40
2018-03-06T17:15:43.211Z,60.70
2018-03-06T17:18:11.091Z,61.60
2018-03-06T17:20:38.268Z,61.50
2018-03-06T17:23:05.426Z,61.60
2018-03-06T17:25:32.573Z,61.80
2018-03-06T17:27:59.792Z,62.10
2018-03-06T17:30:26.978Z,62.10
2018-03-06T17:32:54.159Z,62.20
2018-03-06T17:35:21.989Z,62.50
2018-03-06T17:37:49.060Z,62.60
2018-03-06T17:40:16.251Z,62.60
2018-03-06T17:42:44.539Z,63.60
2018-03-06T17:45:12.963Z,63.20
2018-03-06T17:47:41.398Z,63.50
2018-03-06T17:50:09.673Z,63.60
2018-03-06T17:52:38.592Z,64.00
2018-03-06T17:55:06.134Z,63.90
2018-03-06T17:57:34.519Z,64.70
2018-03-06T18:00:02.614Z,64.80
2018-03-06T18:02:29.719Z,64.80
2018-03-06T18:04:56.724Z,65.00
2018-03-06T18:07:24.097Z,66.20
2018-03-06T18:09:51.376Z,65.60
2018-03-06T18:12:18.797Z,65.90
2018-03-06T18:15:10.016Z,66.30
2018-03-06T18:17:37.735Z,66.50
2018-03-06T18:20:05.000Z,67.00
2018-03-06T18:22:33.061Z,67.20
2018-03-06T18:25:00.119Z,67.10
2018-03-06T18:27:27.039Z,67.50
2018-03-06T18:29:53.880Z,67.60
2018-03-06T18:32:20.848Z,67.80
2018-03-06T18:34:48.202Z,68.00
2018-03-06T18:37:15.162Z,67.80
2018-03-06T18:39:42.036Z,68.00
2018-03-06T18:42:09.801Z,68.00
2018-03-06T18:44:37.528Z,67.20
2018-03-06T18:47:04.584Z,67.10
2018-03-06T18:49:31.624Z,67.30
2018-03-06T18:51:58.416Z,67.30
2018-03-06T18:54:26.157Z,67.30
2018-03-06T18:56:53.067Z,67.20
2018-03-06T18:59:20.138Z,67.20
2018-03-06T19:05:02.472Z,67.10
2018-03-06T19:07:29.342Z,67.10
2018-03-06T19:09:57.181Z,67.60
2018-03-06T19:12:24.334Z,67.50
2018-03-06T19:15:17.032Z,67.50
2018-03-06T19:17:45.781Z,67.80
2018-03-06T19:20:12.820Z,67.80
2018-03-06T19:22:40.582Z,68.20
2018-03-06T19:25:07.640Z,68.20
2018-03-06T19:27:35.394Z,68.40
2018-03-06T19:30:02.452Z,68.40
2018-03-06T19:32:29.348Z,68.40
2018-03-06T19:34:57.085Z,69.00
2018-03-06T19:37:25.542Z,69.00
2018-03-06T19:39:52.692Z,68.90
2018-03-06T19:42:19.645Z,69.20
2018-03-06T19:44:46.465Z,69.30
2018-03-06T19:47:13.542Z,69.40
2018-03-06T19:49:40.498Z,69.50
2018-03-06T19:52:07.288Z,69.70
2018-03-06T19:54:34.371Z,69.80
2018-03-06T19:57:01.329Z,70.00
2018-03-06T19:59:28.379Z,70.20
2018-03-06T20:01:55.218Z,70.30
2018-03-06T20:04:22.213Z,70.40
2018-03-06T20:06:49.793Z,70.60
2018-03-06T20:09:17.502Z,70.80
2018-03-06T20:11:44.400Z,70.70
2018-03-06T20:14:16.747Z,71.00
2018-03-06T20:17:15.903Z,71.20
2018-03-06T20:19:42.862Z,71.10
2018-03-06T20:22:09.812Z,71.30
2018-03-06T20:24:42.842Z,71.30
2018-03-06T20:27:10.677Z,71.50
2018-03-06T20:29:37.821Z,71.40
2018-03-06T20:32:10.837Z,71.60
2018-03-06T20:34:38.472Z,71.90
2018-03-06T20:37:05.523Z,71.70
2018-03-06T20:39:38.323Z,71.60
2018-03-06T20:42:05.223Z,71.60
2018-03-06T20:44:32.088Z,71.60
2018-03-06T20:47:04.875Z,71.80
2018-03-06T20:49:31.798Z,71.90
2018-03-06T20:51:58.769Z,71.90
2018-03-06T20:54:31.679Z,71.60
2018-03-06T20:56:59.965Z,71.80
2018-03-06T20:59:26.835Z,71.80
2018-03-06T21:01:53.828Z,71.90
2018-03-06T21:04:20.785Z,72.00
2018-03-06T21:06:47.829Z,72.00
2018-03-06T21:09:14.881Z,72.10
2018-03-06T21:11:41.817Z,72.10
2018-03-06T21:14:08.628Z,71.20
2018-03-06T21:20:12.817Z,70.20
2018-03-06T21:22:39.708Z,70.20
2018-03-06T21:25:06.549Z,70.40
2018-03-06T21:30:41.987Z,70.20
2018-03-06T21:33:08.824Z,70.20
2018-03-06T21:35:35.667Z,70.20
2018-03-06T21:38:03.824Z,70.40
2018-03-06T21:40:30.682Z,70.70
2018-03-06T21:42:58.037Z,70.70
2018-03-06T21:45:24.866Z,71.00
2018-03-06T21:47:51.715Z,71.50
2018-03-06T21:50:18.680Z,72.00
2018-03-06T21:52:45.492Z,71.80
2018-03-06T21:55:12.356Z,72.00
2018-03-06T21:57:39.234Z,72.30
2018-03-06T22:00:06.854Z,73.10
2018-03-06T22:02:33.667Z,73.10
2018-03-06T22:05:00.558Z,73.40
2018-03-06T22:07:27.471Z,73.50
2018-03-06T22:09:54.300Z,73.80
2018-03-06T22:12:21.872Z,74.10
2018-03-06T22:15:10.457Z,74.10
2018-03-06T22:17:44.203Z,74.10
2018-03-06T22:20:11.830Z,75.20
2018-03-06T22:22:38.696Z,74.40
2018-03-06T22:25:05.582Z,74.60
2018-03-06T22:27:33.181Z,74.60
2018-03-06T22:30:00.022Z,74.60
2018-03-06T22:32:26.839Z,74.70
2018-03-06T22:34:53.661Z,74.60
2018-03-06T22:37:21.201Z,74.30
2018-03-06T22:39:48.223Z,74.30
2018-03-06T22:42:15.104Z,74.30
2018-03-06T22:44:43.048Z,74.30
2018-03-06T22:47:10.095Z,74.30
2018-03-06T22:49:36.932Z,74.50
2018-03-06T22:52:03.982Z,74.30
2018-03-06T22:54:30.929Z,74.20
2018-03-06T22:56:57.755Z,74.10
2018-03-06T22:59:24.618Z,74.50
2018-03-06T23:01:51.683Z,74.60
2018-03-06T23:04:18.630Z,74.80
2018-03-06T23:06:45.571Z,74.90
2018-03-06T23:09:12.617Z,75.00
2018-03-06T23:11:39.667Z,75.10
2018-03-06T23:14:06.503Z,75.30
2018-03-06T23:16:33.662Z,75.30
2018-03-06T23:19:00.709Z,75.40
2018-03-06T23:21:27.566Z,75.50
2018-03-06T23:24:09.453Z,75.60
2018-03-06T23:26:36.394Z,75.60
2018-03-06T23:29:03.341Z,75.50
2018-03-06T23:31:30.187Z,75.50
2018-03-06T23:33:57.236Z,75.40
2018-03-06T23:36:24.113Z,75.40
2018-03-06T23:38:51.862Z,75.50
2018-03-06T23:41:18.905Z,75.50
2018-03-06T23:43:45.820Z,75.50
2018-03-06T23:46:13.622Z,75.60
2018-03-06T23:48:40.771Z,75.70
2018-03-06T23:51:08.103Z,75.60
2018-03-06T23:53:35.582Z,75.60
2018-03-06T23:56:02.542Z,75.70
2018-03-06T23:58:29.579Z,75.60
